createdAt,value
2022-11-06T00:00:18.777Z,8.98
2022-11-06T00:05:38.956Z,8.48
2022-11-06T00:10:40.490Z,8.70
2022-11-06T00:15:41.813Z,8.27
2022-11-06T00:20:43.275Z,8.32
2022-11-06T00:25:44.676Z,8.25
2022-11-06T00:30:46.775Z,8.40
2022-11-06T00:35:48.128Z,7.00
2022-11-06T00:40:49.480Z,8.73
2022-11-06T00:45:50.810Z,8.70
2022-11-06T00:50:52.170Z,7.95
2022-11-06T00:55:53.670Z,8.05
2022-11-06T01:00:55.002Z,9.30
2022-11-06T01:06:03.044Z,8.20
2022-11-06T01:11:22.892Z,7.60
2022-11-06T01:16:25.315Z,7.32
2022-11-06T01:21:33.075Z,7.97
2022-11-06T01:26:39.284Z,8.02
2022-11-06T01:31:44.558Z,8.00
2022-11-06T01:36:46.669Z,8.45
2022-11-06T01:41:50.764Z,8.38
2022-11-06T01:46:52.324Z,8.05
2022-11-06T01:51:57.793Z,7.40
2022-11-06T01:57:01.124Z,8.27
2022-11-06T02:02:02.879Z,9.02
2022-11-06T02:07:05.821Z,8.23
2022-11-06T02:12:32.958Z,9.18
2022-11-06T02:17:46.544Z,9.32
2022-11-06T02:23:30.837Z,9.90
2022-11-06T02:28:39.080Z,10.07
2022-11-06T02:33:48.957Z,8.70
2022-11-06T02:38:57.257Z,9.45
2022-11-06T02:44:00.037Z,9.45
2022-11-06T02:49:07.660Z,9.07
2022-11-06T02:54:11.521Z,9.52
2022-11-06T02:59:29.208Z,10.23
2022-11-06T03:04:43.821Z,9.50
2022-11-06T03:09:45.625Z,11.10
2022-11-06T03:14:57.007Z,10.50
2022-11-06T03:20:23.398Z,11.07
2022-11-06T03:25:43.350Z,11.38
2022-11-06T03:30:50.712Z,11.48
2022-11-06T03:35:58.926Z,10.93
2022-11-06T03:41:06.920Z,9.05
2022-11-06T03:46:15.505Z,10.27
2022-11-06T03:51:25.282Z,9.52
2022-11-06T03:56:59.843Z,9.15
2022-11-06T04:02:02.945Z,9.02
2022-11-06T04:07:13.104Z,9.68
2022-11-06T04:12:38.861Z,8.90
2022-11-06T04:17:41.744Z,10.95
2022-11-06T04:22:59.751Z,9.77
2022-11-06T04:28:48.887Z,10.02
2022-11-06T04:33:59.034Z,10.45
2022-11-06T04:39:12.554Z,10.60
2022-11-06T04:44:23.878Z,9.55
2022-11-06T04:49:29.042Z,10.10
2022-11-06T04:54:32.110Z,10.52
2022-11-06T04:59:36.545Z,10.02
2022-11-06T05:04:37.901Z,10.18
2022-11-06T05:09:39.259Z,10.20
2022-11-06T05:14:40.628Z,11.68
2022-11-06T05:19:41.964Z,9.77
2022-11-06T05:24:43.331Z,10.90
2022-11-06T05:29:45.181Z,11.00
2022-11-06T05:34:46.967Z,10.73
2022-11-06T05:39:48.324Z,10.93
2022-11-06T05:44:49.732Z,12.23
2022-11-06T05:49:51.076Z,10.90
2022-11-06T05:54:52.550Z,10.93
2022-11-06T05:59:53.907Z,11.98
2022-11-06T06:04:55.250Z,10.75
2022-11-06T06:09:56.732Z,11.80
2022-11-06T06:14:58.086Z,11.40
2022-11-06T06:19:59.527Z,12.75
2022-11-06T06:25:01.598Z,12.13
2022-11-06T06:30:03.345Z,12.35
2022-11-06T06:35:05.296Z,12.65
2022-11-06T06:40:07.130Z,12.82
2022-11-06T06:45:08.834Z,12.20
2022-11-06T06:50:10.224Z,12.20
2022-11-06T06:55:11.597Z,11.85
2022-11-06T07:00:13.256Z,12.20
2022-11-06T07:05:14.630Z,12.18
2022-11-06T07:10:16.688Z,12.25
2022-11-06T07:15:18.095Z,13.85
2022-11-06T07:20:19.512Z,10.88
2022-11-06T07:25:20.878Z,11.40
2022-11-06T07:30:22.238Z,10.68
2022-11-06T07:35:23.596Z,8.93
2022-11-06T07:40:25.032Z,10.40
2022-11-06T07:45:26.377Z,9.52
2022-11-06T07:50:27.880Z,9.20
2022-11-06T07:55:29.736Z,9.27
2022-11-06T08:00:31.052Z,8.95
2022-11-06T08:05:32.396Z,10.20
2022-11-06T08:10:33.852Z,11.68
2022-11-06T08:15:38.069Z,10.60
2022-11-06T08:20:40.248Z,11.35
2022-11-06T08:25:41.661Z,11.35
2022-11-06T08:30:43.020Z,11.48
2022-11-06T08:35:44.574Z,11.43
2022-11-06T08:40:50.723Z,10.68
2022-11-06T08:45:54.772Z,12.27
2022-11-06T08:50:56.334Z,12.13
2022-11-06T08:55:57.721Z,12.38
2022-11-06T09:00:59.156Z,10.07
2022-11-06T09:06:00.781Z,9.70
2022-11-06T09:11:07.312Z,10.50
2022-11-06T09:16:14.279Z,12.05
2022-11-06T09:21:17.088Z,10.73
2022-11-06T09:26:18.606Z,8.50
2022-11-06T09:31:19.978Z,10.38
2022-11-06T09:36:21.409Z,9.13
2022-11-06T09:41:50.473Z,6.88
2022-11-06T09:46:53.686Z,7.32
2022-11-06T09:52:38.441Z,5.90
2022-11-06T09:57:55.948Z,6.05
2022-11-06T10:03:05.483Z,6.43
2022-11-06T10:08:15.522Z,6.13
2022-11-06T10:13:38.073Z,5.13
2022-11-06T10:18:56.558Z,5.75
2022-11-06T10:24:02.329Z,4.70
2022-11-06T10:29:18.676Z,4.82
2022-11-06T10:34:25.157Z,5.32
2022-11-06T10:39:32.637Z,5.55
2022-11-06T10:49:48.083Z,4.88
2022-11-06T10:55:05.349Z,4.28
2022-11-06T11:00:12.500Z,3.38
2022-11-06T11:05:17.050Z,3.83
2022-11-06T11:10:24.436Z,2.90
2022-11-06T11:20:31.168Z,3.38
2022-11-06T11:25:32.671Z,3.15
2022-11-06T11:30:34.091Z,3.35
2022-11-06T11:35:38.350Z,3.40
2022-11-06T11:40:40.236Z,2.78
2022-11-06T11:45:42.668Z,3.30
2022-11-06T11:50:44.164Z,2.38
2022-11-06T11:55:49.172Z,2.58
2022-11-06T12:00:54.568Z,2.03
2022-11-06T12:06:12.961Z,2.70
2022-11-06T12:11:19.714Z,1.58
2022-11-06T12:16:21.308Z,1.60
2022-11-06T12:21:48.840Z,1.90
2022-11-06T12:26:59.015Z,1.77
2022-11-06T12:32:21.840Z,1.50
2022-11-06T12:37:37.110Z,1.73
2022-11-06T12:42:41.450Z,0.98
2022-11-06T12:47:57.485Z,0.98
2022-11-06T12:53:03.441Z,0.82
2022-11-06T12:58:29.022Z,1.50
2022-11-06T13:03:59.691Z,1.08
2022-11-06T13:09:06.234Z,0.80
2022-11-06T13:14:29.673Z,0.83
2022-11-06T13:19:47.589Z,1.05
2022-11-06T13:25:20.717Z,6.68
2022-11-06T13:30:24.485Z,0.90
2022-11-06T13:35:27.060Z,0.85
2022-11-06T13:40:37.115Z,0.93
2022-11-06T13:46:07.563Z,0.52
2022-11-06T13:51:42.016Z,0.68
2022-11-06T13:57:24.546Z,0.90
2022-11-06T14:02:37.044Z,0.80
2022-11-06T14:07:41.285Z,0.80
2022-11-06T14:12:46.887Z,1.00
2022-11-06T14:18:01.620Z,0.95
2022-11-06T14:23:29.074Z,0.90
2022-11-06T14:28:33.072Z,0.90
2022-11-06T14:33:58.361Z,0.98
2022-11-06T14:38:59.888Z,0.80
2022-11-06T14:44:18.855Z,1.00
2022-11-06T14:49:26.541Z,1.05
2022-11-06T14:54:28.708Z,1.20
2022-11-06T14:59:34.956Z,1.70
2022-11-06T15:04:44.198Z,1.67
2022-11-06T15:09:47.516Z,1.40
2022-11-06T15:14:48.854Z,1.45
2022-11-06T15:20:06.069Z,1.50
2022-11-06T15:25:10.390Z,2.70
2022-11-06T15:30:17.664Z,3.55
2022-11-06T15:35:23.611Z,3.63
2022-11-06T15:40:29.206Z,3.47
2022-11-06T15:45:30.604Z,4.60
2022-11-06T15:50:34.156Z,4.05
2022-11-06T15:55:38.361Z,4.07
2022-11-06T16:00:41.448Z,4.00
2022-11-06T16:05:43.116Z,4.15
2022-11-06T16:10:48.161Z,3.70
2022-11-06T16:15:58.900Z,4.30
2022-11-06T16:21:08.745Z,4.13
2022-11-06T16:26:22.840Z,4.47
2022-11-06T16:31:28.129Z,5.80
2022-11-06T16:36:31.656Z,4.85
2022-11-06T16:41:59.661Z,3.78
2022-11-06T16:52:32.646Z,6.53
2022-11-06T16:57:36.926Z,4.47
2022-11-06T17:02:38.739Z,4.78
2022-11-06T17:07:41.257Z,4.90
2022-11-06T17:12:42.646Z,4.60
2022-11-06T17:17:43.973Z,3.85
2022-11-06T17:22:46.075Z,4.05
2022-11-06T17:27:47.418Z,4.00
2022-11-06T17:32:48.759Z,3.60
2022-11-06T17:37:50.130Z,3.95
2022-11-06T17:42:51.533Z,4.40
2022-11-06T17:47:52.896Z,5.57
2022-11-06T17:52:54.369Z,6.18
2022-11-06T17:57:55.697Z,5.13
2022-11-06T18:03:02.309Z,6.03
2022-11-06T18:08:04.002Z,6.32
2022-11-06T18:13:06.969Z,5.78
2022-11-06T18:18:08.326Z,5.30
2022-11-06T18:23:09.657Z,5.45
2022-11-06T18:28:11.027Z,6.20
2022-11-06T18:33:12.382Z,5.40
2022-11-06T18:38:14.961Z,5.28
2022-11-06T18:43:16.515Z,4.93
2022-11-06T18:48:21.248Z,5.65
2022-11-06T18:53:23.121Z,5.50
2022-11-06T18:58:24.576Z,5.20
2022-11-06T19:03:25.939Z,5.93
2022-11-06T19:08:27.283Z,5.57
2022-11-06T19:13:28.686Z,4.50
2022-11-06T19:18:31.261Z,4.68
2022-11-06T19:23:32.669Z,5.03
2022-11-06T19:28:36.003Z,4.70
2022-11-06T19:33:37.556Z,4.07
2022-11-06T19:38:39.249Z,5.45
2022-11-06T19:43:40.677Z,4.90
2022-11-06T19:48:42.096Z,4.47
2022-11-06T19:53:43.607Z,3.85
2022-11-06T19:58:45.056Z,3.47
2022-11-06T20:03:46.876Z,3.13
2022-11-06T20:08:50.158Z,3.03
2022-11-06T20:13:51.609Z,2.60
2022-11-06T20:18:57.860Z,2.38
2022-11-06T20:23:59.298Z,2.97
2022-11-06T20:29:00.750Z,2.75
2022-11-06T20:34:02.179Z,2.13
2022-11-06T20:39:03.918Z,2.92
2022-11-06T20:44:05.377Z,2.00
2022-11-06T20:49:06.898Z,1.83
2022-11-06T20:54:08.403Z,2.25
2022-11-06T20:59:10.236Z,1.58
2022-11-06T21:04:12.063Z,1.67
2022-11-06T21:09:13.428Z,2.08
2022-11-06T21:14:14.873Z,2.28
2022-11-06T21:19:16.263Z,2.17
2022-11-06T21:24:17.738Z,2.45
2022-11-06T21:29:19.068Z,2.10
2022-11-06T21:34:20.487Z,2.67
2022-11-06T21:39:22.242Z,2.17
2022-11-06T21:44:23.770Z,2.10
2022-11-06T21:49:25.147Z,2.40
2022-11-06T21:54:45.290Z,1.33
2022-11-06T21:59:46.633Z,2.58
2022-11-06T22:04:47.966Z,1.60
2022-11-06T22:09:49.316Z,2.75
2022-11-06T22:14:50.654Z,1.70
2022-11-06T22:19:51.993Z,1.52
2022-11-06T22:24:53.398Z,1.65
2022-11-06T22:29:54.753Z,1.38
2022-11-06T22:34:56.105Z,1.42
2022-11-06T22:39:57.437Z,1.27
2022-11-06T22:44:58.766Z,2.05
2022-11-06T22:50:00.497Z,1.42
2022-11-06T22:55:01.828Z,1.02
2022-11-06T23:00:05.280Z,1.50
2022-11-06T23:05:07.311Z,1.60
2022-11-06T23:10:09.382Z,1.70
2022-11-06T23:15:10.823Z,1.40
2022-11-06T23:20:12.154Z,1.67
2022-11-06T23:25:14.722Z,1.60
2022-11-06T23:30:16.081Z,1.60
2022-11-06T23:35:19.482Z,1.08
2022-11-06T23:40:22.496Z,1.30
2022-11-06T23:45:42.288Z,1.10
2022-11-06T23:50:47.034Z,1.00
2022-11-06T23:55:48.551Z,1.10
